sensor_id;sensor_type;location;lat;lon;timestamp;temperature;humidity
72114;SHT31;59989;46.220;19.888;2023-06-22T00:01:46;22.58;84.87
72114;SHT31;59989;46.220;19.888;2023-06-22T00:04:49;22.55;84.41
72114;SHT31;59989;46.220;19.888;2023-06-22T00:07:51;22.52;83.92
72114;SHT31;59989;46.220;19.888;2023-06-22T00:10:53;22.40;83.98
72114;SHT31;59989;46.220;19.888;2023-06-22T00:13:56;22.34;83.94
72114;SHT31;59989;46.220;19.888;2023-06-22T00:16:58;22.24;84.32
72114;SHT31;59989;46.220;19.888;2023-06-22T00:20:01;22.20;84.46
72114;SHT31;59989;46.220;19.888;2023-06-22T00:23:05;22.20;84.57
72114;SHT31;59989;46.220;19.888;2023-06-22T00:26:11;22.18;83.71
72114;SHT31;59989;46.220;19.888;2023-06-22T00:29:14;22.14;83.15
72114;SHT31;59989;46.220;19.888;2023-06-22T00:32:16;22.12;82.92
72114;SHT31;59989;46.220;19.888;2023-06-22T00:35:22;21.99;83.73
72114;SHT31;59989;46.220;19.888;2023-06-22T00:38:24;21.90;84.15
72114;SHT31;59989;46.220;19.888;2023-06-22T00:41:27;21.82;84.61
72114;SHT31;59989;46.220;19.888;2023-06-22T00:44:30;21.72;85.06
72114;SHT31;59989;46.220;19.888;2023-06-22T00:47:34;21.65;85.33
72114;SHT31;59989;46.220;19.888;2023-06-22T00:50:39;21.61;85.46
72114;SHT31;59989;46.220;19.888;2023-06-22T00:53:42;21.58;86.15
72114;SHT31;59989;46.220;19.888;2023-06-22T00:56:45;21.55;86.30
72114;SHT31;59989;46.220;19.888;2023-06-22T00:59:48;21.52;85.88
72114;SHT31;59989;46.220;19.888;2023-06-22T01:02:52;21.46;85.99
72114;SHT31;59989;46.220;19.888;2023-06-22T01:06:02;21.44;86.29
72114;SHT31;59989;46.220;19.888;2023-06-22T01:09:32;21.38;86.47
72114;SHT31;59989;46.220;19.888;2023-06-22T01:12:42;21.37;86.44
72114;SHT31;59989;46.220;19.888;2023-06-22T01:15:53;21.31;86.46
72114;SHT31;59989;46.220;19.888;2023-06-22T01:19:00;21.24;87.15
72114;SHT31;59989;46.220;19.888;2023-06-22T01:22:05;21.17;87.35
72114;SHT31;59989;46.220;19.888;2023-06-22T01:25:12;21.11;87.94
72114;SHT31;59989;46.220;19.888;2023-06-22T01:31:46;20.97;88.89
72114;SHT31;59989;46.220;19.888;2023-06-22T01:34:51;20.91;88.27
72114;SHT31;59989;46.220;19.888;2023-06-22T01:37:54;20.88;88.36
72114;SHT31;59989;46.220;19.888;2023-06-22T01:40:57;20.90;88.43
72114;SHT31;59989;46.220;19.888;2023-06-22T01:44:02;20.86;88.19
72114;SHT31;59989;46.220;19.888;2023-06-22T01:47:07;20.86;88.64
72114;SHT31;59989;46.220;19.888;2023-06-22T01:50:11;20.81;88.60
72114;SHT31;59989;46.220;19.888;2023-06-22T01:53:14;20.81;88.10
72114;SHT31;59989;46.220;19.888;2023-06-22T01:56:17;20.83;88.30
72114;SHT31;59989;46.220;19.888;2023-06-22T01:59:26;20.77;88.04
72114;SHT31;59989;46.220;19.888;2023-06-22T02:02:40;20.77;88.22
72114;SHT31;59989;46.220;19.888;2023-06-22T02:06:03;20.73;88.25
72114;SHT31;59989;46.220;19.888;2023-06-22T02:09:09;20.70;88.04
72114;SHT31;59989;46.220;19.888;2023-06-22T02:12:17;20.65;88.76
72114;SHT31;59989;46.220;19.888;2023-06-22T02:15:21;20.62;88.23
72114;SHT31;59989;46.220;19.888;2023-06-22T02:18:28;20.65;88.42
72114;SHT31;59989;46.220;19.888;2023-06-22T02:21:30;20.60;88.21
72114;SHT31;59989;46.220;19.888;2023-06-22T02:24:33;20.57;89.28
72114;SHT31;59989;46.220;19.888;2023-06-22T02:27:35;20.52;90.10
72114;SHT31;59989;46.220;19.888;2023-06-22T02:30:38;20.48;89.30
72114;SHT31;59989;46.220;19.888;2023-06-22T02:33:42;20.43;89.45
72114;SHT31;59989;46.220;19.888;2023-06-22T02:36:48;20.45;89.21
72114;SHT31;59989;46.220;19.888;2023-06-22T02:39:54;20.42;89.63
72114;SHT31;59989;46.220;19.888;2023-06-22T02:42:56;20.38;89.67
72114;SHT31;59989;46.220;19.888;2023-06-22T02:46:05;20.33;89.89
72114;SHT31;59989;46.220;19.888;2023-06-22T02:49:07;20.30;90.47
72114;SHT31;59989;46.220;19.888;2023-06-22T02:52:09;20.26;90.23
72114;SHT31;59989;46.220;19.888;2023-06-22T02:55:12;20.29;90.05
72114;SHT31;59989;46.220;19.888;2023-06-22T02:58:15;20.30;90.24
72114;SHT31;59989;46.220;19.888;2023-06-22T03:01:18;20.29;90.11
72114;SHT31;59989;46.220;19.888;2023-06-22T03:04:26;20.26;90.11
72114;SHT31;59989;46.220;19.888;2023-06-22T03:07:29;20.26;90.12
72114;SHT31;59989;46.220;19.888;2023-06-22T03:10:33;20.28;90.82
72114;SHT31;59989;46.220;19.888;2023-06-22T03:13:35;20.26;90.76
72114;SHT31;59989;46.220;19.888;2023-06-22T03:16:38;20.30;90.71
72114;SHT31;59989;46.220;19.888;2023-06-22T03:19:42;20.38;90.03
72114;SHT31;59989;46.220;19.888;2023-06-22T03:22:45;20.49;90.37
72114;SHT31;59989;46.220;19.888;2023-06-22T03:25:47;20.60;89.12
72114;SHT31;59989;46.220;19.888;2023-06-22T03:28:50;20.70;89.41
72114;SHT31;59989;46.220;19.888;2023-06-22T03:31:52;20.80;88.54
72114;SHT31;59989;46.220;19.888;2023-06-22T03:34:56;20.87;87.90
72114;SHT31;59989;46.220;19.888;2023-06-22T03:38:01;20.94;87.73
72114;SHT31;59989;46.220;19.888;2023-06-22T03:41:05;21.03;87.50
72114;SHT31;59989;46.220;19.888;2023-06-22T03:44:09;21.11;87.04
72114;SHT31;59989;46.220;19.888;2023-06-22T03:47:15;21.21;87.59
72114;SHT31;59989;46.220;19.888;2023-06-22T03:50:17;21.23;87.39
72114;SHT31;59989;46.220;19.888;2023-06-22T03:53:22;21.28;87.07
72114;SHT31;59989;46.220;19.888;2023-06-22T03:56:24;21.32;86.80
72114;SHT31;59989;46.220;19.888;2023-06-22T03:59:27;21.38;86.79
72114;SHT31;59989;46.220;19.888;2023-06-22T04:02:29;21.45;86.65
72114;SHT31;59989;46.220;19.888;2023-06-22T04:05:32;21.51;87.06
72114;SHT31;59989;46.220;19.888;2023-06-22T04:08:34;21.55;86.90
72114;SHT31;59989;46.220;19.888;2023-06-22T04:11:36;21.66;86.56
72114;SHT31;59989;46.220;19.888;2023-06-22T04:14:39;21.76;86.77
72114;SHT31;59989;46.220;19.888;2023-06-22T04:17:41;21.86;85.35
72114;SHT31;59989;46.220;19.888;2023-06-22T04:20:44;21.92;85.31
72114;SHT31;59989;46.220;19.888;2023-06-22T04:23:49;21.97;84.46
72114;SHT31;59989;46.220;19.888;2023-06-22T04:26:52;22.09;83.58
72114;SHT31;59989;46.220;19.888;2023-06-22T04:29:57;22.21;84.07
72114;SHT31;59989;46.220;19.888;2023-06-22T04:33:02;22.41;83.06
72114;SHT31;59989;46.220;19.888;2023-06-22T04:36:05;22.57;82.54
72114;SHT31;59989;46.220;19.888;2023-06-22T04:39:09;22.76;81.95
72114;SHT31;59989;46.220;19.888;2023-06-22T04:42:12;22.92;82.04
72114;SHT31;59989;46.220;19.888;2023-06-22T04:45:14;23.03;80.89
72114;SHT31;59989;46.220;19.888;2023-06-22T04:48:17;23.26;80.84
72114;SHT31;59989;46.220;19.888;2023-06-22T04:51:19;23.29;80.08
72114;SHT31;59989;46.220;19.888;2023-06-22T04:54:24;23.39;79.53
72114;SHT31;59989;46.220;19.888;2023-06-22T04:57:26;23.34;79.27
72114;SHT31;59989;46.220;19.888;2023-06-22T05:00:34;23.37;79.75
72114;SHT31;59989;46.220;19.888;2023-06-22T05:03:38;23.46;79.97
72114;SHT31;59989;46.220;19.888;2023-06-22T05:06:44;23.50;80.54
72114;SHT31;59989;46.220;19.888;2023-06-22T05:09:47;23.50;79.26
72114;SHT31;59989;46.220;19.888;2023-06-22T05:12:50;23.67;79.15
72114;SHT31;59989;46.220;19.888;2023-06-22T05:15:52;23.82;79.80
72114;SHT31;59989;46.220;19.888;2023-06-22T05:18:55;23.97;79.00
72114;SHT31;59989;46.220;19.888;2023-06-22T05:21:58;24.05;78.41
72114;SHT31;59989;46.220;19.888;2023-06-22T05:25:00;24.19;79.07
72114;SHT31;59989;46.220;19.888;2023-06-22T05:28:03;24.28;78.09
72114;SHT31;59989;46.220;19.888;2023-06-22T05:31:14;24.37;78.45
72114;SHT31;59989;46.220;19.888;2023-06-22T05:34:17;24.60;78.72
72114;SHT31;59989;46.220;19.888;2023-06-22T05:37:19;24.76;78.08
72114;SHT31;59989;46.220;19.888;2023-06-22T05:40:22;24.88;77.14
72114;SHT31;59989;46.220;19.888;2023-06-22T05:43:24;24.81;75.43
72114;SHT31;59989;46.220;19.888;2023-06-22T05:46:27;24.81;75.01
72114;SHT31;59989;46.220;19.888;2023-06-22T05:49:29;25.01;75.16
72114;SHT31;59989;46.220;19.888;2023-06-22T05:52:35;24.94;74.39
72114;SHT31;59989;46.220;19.888;2023-06-22T05:55:37;25.08;74.13
72114;SHT31;59989;46.220;19.888;2023-06-22T05:58:40;25.30;75.00
72114;SHT31;59989;46.220;19.888;2023-06-22T06:01:42;25.27;74.36
72114;SHT31;59989;46.220;19.888;2023-06-22T06:04:45;25.37;74.06
72114;SHT31;59989;46.220;19.888;2023-06-22T06:07:47;25.30;73.10
72114;SHT31;59989;46.220;19.888;2023-06-22T06:10:51;25.42;73.38
72114;SHT31;59989;46.220;19.888;2023-06-22T06:13:55;25.49;73.36
72114;SHT31;59989;46.220;19.888;2023-06-22T06:16:58;25.45;73.19
72114;SHT31;59989;46.220;19.888;2023-06-22T06:20:00;25.45;73.15
72114;SHT31;59989;46.220;19.888;2023-06-22T06:23:03;25.59;72.86
72114;SHT31;59989;46.220;19.888;2023-06-22T06:26:06;25.72;72.44
72114;SHT31;59989;46.220;19.888;2023-06-22T06:29:09;25.86;72.83
72114;SHT31;59989;46.220;19.888;2023-06-22T06:32:12;25.83;72.81
72114;SHT31;59989;46.220;19.888;2023-06-22T06:35:15;25.97;72.88
72114;SHT31;59989;46.220;19.888;2023-06-22T06:38:20;25.79;71.95
72114;SHT31;59989;46.220;19.888;2023-06-22T06:41:22;25.93;71.45
72114;SHT31;59989;46.220;19.888;2023-06-22T06:44:25;26.08;71.17
72114;SHT31;59989;46.220;19.888;2023-06-22T06:47:28;26.10;71.53
72114;SHT31;59989;46.220;19.888;2023-06-22T06:50:30;26.16;71.32
72114;SHT31;59989;46.220;19.888;2023-06-22T06:53:33;26.44;71.44
72114;SHT31;59989;46.220;19.888;2023-06-22T06:56:36;26.59;70.54
72114;SHT31;59989;46.220;19.888;2023-06-22T06:59:39;26.72;71.82
72114;SHT31;59989;46.220;19.888;2023-06-22T07:02:44;26.85;70.02
72114;SHT31;59989;46.220;19.888;2023-06-22T07:05:47;27.10;68.66
72114;SHT31;59989;46.220;19.888;2023-06-22T07:08:49;27.37;68.66
72114;SHT31;59989;46.220;19.888;2023-06-22T07:11:51;27.53;67.24
72114;SHT31;59989;46.220;19.888;2023-06-22T07:15:01;27.58;66.70
72114;SHT31;59989;46.220;19.888;2023-06-22T07:18:04;27.84;66.42
72114;SHT31;59989;46.220;19.888;2023-06-22T07:21:07;28.16;64.05
72114;SHT31;59989;46.220;19.888;2023-06-22T07:24:09;28.09;63.58
72114;SHT31;59989;46.220;19.888;2023-06-22T07:27:12;28.46;62.75
72114;SHT31;59989;46.220;19.888;2023-06-22T07:30:16;28.66;64.17
72114;SHT31;59989;46.220;19.888;2023-06-22T07:33:18;28.70;63.68
72114;SHT31;59989;46.220;19.888;2023-06-22T07:36:21;29.00;61.14
72114;SHT31;59989;46.220;19.888;2023-06-22T07:39:24;29.03;62.32
72114;SHT31;59989;46.220;19.888;2023-06-22T07:42:28;29.29;62.20
72114;SHT31;59989;46.220;19.888;2023-06-22T07:45:35;29.12;61.08
72114;SHT31;59989;46.220;19.888;2023-06-22T07:48:37;29.21;62.45
72114;SHT31;59989;46.220;19.888;2023-06-22T07:51:42;29.24;60.28
72114;SHT31;59989;46.220;19.888;2023-06-22T07:54:44;29.56;60.18
72114;SHT31;59989;46.220;19.888;2023-06-22T07:57:48;29.55;60.40
72114;SHT31;59989;46.220;19.888;2023-06-22T08:00:51;29.86;59.99
72114;SHT31;59989;46.220;19.888;2023-06-22T08:03:53;29.52;58.12
72114;SHT31;59989;46.220;19.888;2023-06-22T08:06:56;29.70;59.29
72114;SHT31;59989;46.220;19.888;2023-06-22T08:09:58;29.45;60.05
72114;SHT31;59989;46.220;19.888;2023-06-22T08:13:01;29.66;60.76
72114;SHT31;59989;46.220;19.888;2023-06-22T08:16:04;29.99;59.82
72114;SHT31;59989;46.220;19.888;2023-06-22T08:19:06;30.06;60.80
72114;SHT31;59989;46.220;19.888;2023-06-22T08:22:09;30.34;58.74
72114;SHT31;59989;46.220;19.888;2023-06-22T08:25:12;30.40;57.66
72114;SHT31;59989;46.220;19.888;2023-06-22T08:28:15;30.51;59.49
72114;SHT31;59989;46.220;19.888;2023-06-22T08:31:19;30.37;60.43
72114;SHT31;59989;46.220;19.888;2023-06-22T08:34:24;30.47;61.16
72114;SHT31;59989;46.220;19.888;2023-06-22T08:37:28;30.75;60.07
72114;SHT31;59989;46.220;19.888;2023-06-22T08:40:33;30.90;58.49
72114;SHT31;59989;46.220;19.888;2023-06-22T08:43:36;30.78;57.92
72114;SHT31;59989;46.220;19.888;2023-06-22T08:46:38;31.10;59.59
72114;SHT31;59989;46.220;19.888;2023-06-22T08:49:42;30.89;59.57
72114;SHT31;59989;46.220;19.888;2023-06-22T08:52:45;30.64;60.34
72114;SHT31;59989;46.220;19.888;2023-06-22T08:55:48;31.40;58.41
72114;SHT31;59989;46.220;19.888;2023-06-22T08:58:50;31.47;57.97
72114;SHT31;59989;46.220;19.888;2023-06-22T09:01:52;31.54;56.12
72114;SHT31;59989;46.220;19.888;2023-06-22T09:04:59;31.43;59.46
72114;SHT31;59989;46.220;19.888;2023-06-22T09:08:02;31.08;59.74
72114;SHT31;59989;46.220;19.888;2023-06-22T09:11:05;31.36;59.84
72114;SHT31;59989;46.220;19.888;2023-06-22T09:14:08;31.61;56.86
72114;SHT31;59989;46.220;19.888;2023-06-22T09:17:11;31.75;58.53
72114;SHT31;59989;46.220;19.888;2023-06-22T09:20:14;31.78;59.27
72114;SHT31;59989;46.220;19.888;2023-06-22T09:23:17;31.89;58.57
72114;SHT31;59989;46.220;19.888;2023-06-22T09:26:21;31.82;58.81
72114;SHT31;59989;46.220;19.888;2023-06-22T09:29:23;31.87;58.98
72114;SHT31;59989;46.220;19.888;2023-06-22T09:32:26;31.81;56.90
72114;SHT31;59989;46.220;19.888;2023-06-22T09:35:28;32.16;56.38
72114;SHT31;59989;46.220;19.888;2023-06-22T09:38:31;31.71;58.07
72114;SHT31;59989;46.220;19.888;2023-06-22T09:41:33;31.88;58.45
72114;SHT31;59989;46.220;19.888;2023-06-22T09:44:35;32.18;56.53
72114;SHT31;59989;46.220;19.888;2023-06-22T09:47:38;32.32;56.96
72114;SHT31;59989;46.220;19.888;2023-06-22T09:50:41;31.91;57.10
72114;SHT31;59989;46.220;19.888;2023-06-22T09:53:43;32.48;55.96
72114;SHT31;59989;46.220;19.888;2023-06-22T09:56:46;32.74;55.52
72114;SHT31;59989;46.220;19.888;2023-06-22T09:59:48;32.63;54.73
72114;SHT31;59989;46.220;19.888;2023-06-22T10:02:52;32.73;55.39
72114;SHT31;59989;46.220;19.888;2023-06-22T10:05:55;32.59;54.85
72114;SHT31;59989;46.220;19.888;2023-06-22T10:08:57;32.90;55.86
72114;SHT31;59989;46.220;19.888;2023-06-22T10:12:00;33.25;54.70
72114;SHT31;59989;46.220;19.888;2023-06-22T10:15:03;33.54;54.00
72114;SHT31;59989;46.220;19.888;2023-06-22T10:18:06;33.59;52.37
72114;SHT31;59989;46.220;19.888;2023-06-22T10:21:08;33.86;52.39
72114;SHT31;59989;46.220;19.888;2023-06-22T10:24:11;33.12;52.83
72114;SHT31;59989;46.220;19.888;2023-06-22T10:27:14;33.73;51.84
72114;SHT31;59989;46.220;19.888;2023-06-22T10:30:18;33.73;52.85
72114;SHT31;59989;46.220;19.888;2023-06-22T10:33:20;34.00;51.64
72114;SHT31;59989;46.220;19.888;2023-06-22T10:36:23;34.19;50.22
72114;SHT31;59989;46.220;19.888;2023-06-22T10:39:25;34.21;50.75
72114;SHT31;59989;46.220;19.888;2023-06-22T10:42:28;34.88;50.73
72114;SHT31;59989;46.220;19.888;2023-06-22T10:45:30;34.39;50.28
72114;SHT31;59989;46.220;19.888;2023-06-22T10:48:33;34.60;48.88
72114;SHT31;59989;46.220;19.888;2023-06-22T10:51:36;34.96;49.48
72114;SHT31;59989;46.220;19.888;2023-06-22T10:54:38;34.64;50.94
72114;SHT31;59989;46.220;19.888;2023-06-22T10:57:41;34.68;50.12
72114;SHT31;59989;46.220;19.888;2023-06-22T11:00:49;34.96;49.47
72114;SHT31;59989;46.220;19.888;2023-06-22T11:03:52;34.90;49.64
72114;SHT31;59989;46.220;19.888;2023-06-22T11:06:54;35.60;48.59
72114;SHT31;59989;46.220;19.888;2023-06-22T11:09:58;35.64;48.15
72114;SHT31;59989;46.220;19.888;2023-06-22T11:13:01;35.60;47.66
72114;SHT31;59989;46.220;19.888;2023-06-22T11:16:04;35.63;47.97
72114;SHT31;59989;46.220;19.888;2023-06-22T11:19:07;35.39;48.39
72114;SHT31;59989;46.220;19.888;2023-06-22T11:22:10;35.03;49.00
72114;SHT31;59989;46.220;19.888;2023-06-22T11:25:13;34.98;49.07
72114;SHT31;59989;46.220;19.888;2023-06-22T11:28:16;35.66;47.47
72114;SHT31;59989;46.220;19.888;2023-06-22T11:31:18;35.59;48.07
72114;SHT31;59989;46.220;19.888;2023-06-22T11:34:28;36.55;47.48
72114;SHT31;59989;46.220;19.888;2023-06-22T11:37:30;36.76;46.46
72114;SHT31;59989;46.220;19.888;2023-06-22T11:40:33;36.73;47.02
72114;SHT31;59989;46.220;19.888;2023-06-22T11:43:36;36.29;47.12
72114;SHT31;59989;46.220;19.888;2023-06-22T11:46:39;36.49;46.58
72114;SHT31;59989;46.220;19.888;2023-06-22T11:49:42;36.05;46.60
72114;SHT31;59989;46.220;19.888;2023-06-22T11:52:44;35.74;47.24
72114;SHT31;59989;46.220;19.888;2023-06-22T11:55:47;36.17;46.29
72114;SHT31;59989;46.220;19.888;2023-06-22T11:58:50;36.21;47.46
72114;SHT31;59989;46.220;19.888;2023-06-22T12:01:52;36.53;45.50
72114;SHT31;59989;46.220;19.888;2023-06-22T12:04:55;36.90;45.77
72114;SHT31;59989;46.220;19.888;2023-06-22T12:07:58;36.52;45.45
72114;SHT31;59989;46.220;19.888;2023-06-22T12:11:00;36.46;45.57
72114;SHT31;59989;46.220;19.888;2023-06-22T12:14:04;36.59;46.44
72114;SHT31;59989;46.220;19.888;2023-06-22T12:17:06;36.78;46.23
72114;SHT31;59989;46.220;19.888;2023-06-22T12:20:09;36.45;46.05
72114;SHT31;59989;46.220;19.888;2023-06-22T12:23:12;36.84;45.60
72114;SHT31;59989;46.220;19.888;2023-06-22T12:26:14;37.53;44.24
72114;SHT31;59989;46.220;19.888;2023-06-22T12:29:17;37.47;43.56
72114;SHT31;59989;46.220;19.888;2023-06-22T12:32:19;37.86;43.22
72114;SHT31;59989;46.220;19.888;2023-06-22T12:35:22;38.25;43.16
72114;SHT31;59989;46.220;19.888;2023-06-22T12:38:25;38.32;43.22
72114;SHT31;59989;46.220;19.888;2023-06-22T12:41:28;38.18;43.72
72114;SHT31;59989;46.220;19.888;2023-06-22T12:44:30;37.61;44.10
72114;SHT31;59989;46.220;19.888;2023-06-22T12:47:33;37.74;42.94
72114;SHT31;59989;46.220;19.888;2023-06-22T12:50:35;38.78;42.26
72114;SHT31;59989;46.220;19.888;2023-06-22T12:53:38;38.91;41.68
72114;SHT31;59989;46.220;19.888;2023-06-22T12:56:41;38.88;42.49
72114;SHT31;59989;46.220;19.888;2023-06-22T12:59:46;36.65;44.54
72114;SHT31;59989;46.220;19.888;2023-06-22T13:02:48;39.45;40.80
72114;SHT31;59989;46.220;19.888;2023-06-22T13:05:51;41.64;37.68
72114;SHT31;59989;46.220;19.888;2023-06-22T13:08:53;41.44;38.49
72114;SHT31;59989;46.220;19.888;2023-06-22T13:11:59;41.71;36.74
72114;SHT31;59989;46.220;19.888;2023-06-22T13:15:02;41.74;36.85
72114;SHT31;59989;46.220;19.888;2023-06-22T13:18:05;41.64;37.39
72114;SHT31;59989;46.220;19.888;2023-06-22T13:21:08;42.22;36.21
72114;SHT31;59989;46.220;19.888;2023-06-22T13:24:10;42.66;36.34
72114;SHT31;59989;46.220;19.888;2023-06-22T13:27:13;44.26;33.56
72114;SHT31;59989;46.220;19.888;2023-06-22T13:30:15;44.34;33.55
72114;SHT31;59989;46.220;19.888;2023-06-22T13:33:17;42.83;35.75
72114;SHT31;59989;46.220;19.888;2023-06-22T13:36:20;42.28;36.01
72114;SHT31;59989;46.220;19.888;2023-06-22T13:39:23;42.53;36.05
72114;SHT31;59989;46.220;19.888;2023-06-22T13:42:26;43.13;35.28
72114;SHT31;59989;46.220;19.888;2023-06-22T13:45:28;43.27;34.64
72114;SHT31;59989;46.220;19.888;2023-06-22T13:48:31;44.02;33.74
72114;SHT31;59989;46.220;19.888;2023-06-22T13:51:35;43.42;34.87
72114;SHT31;59989;46.220;19.888;2023-06-22T13:54:38;42.90;35.05
72114;SHT31;59989;46.220;19.888;2023-06-22T13:57:40;44.12;33.93
72114;SHT31;59989;46.220;19.888;2023-06-22T14:00:43;43.73;34.24
72114;SHT31;59989;46.220;19.888;2023-06-22T14:03:47;43.35;33.59
72114;SHT31;59989;46.220;19.888;2023-06-22T14:06:50;43.99;33.74
72114;SHT31;59989;46.220;19.888;2023-06-22T14:09:55;44.97;33.32
72114;SHT31;59989;46.220;19.888;2023-06-22T14:12:57;45.54;32.24
72114;SHT31;59989;46.220;19.888;2023-06-22T14:16:02;45.35;31.65
72114;SHT31;59989;46.220;19.888;2023-06-22T14:19:06;44.47;33.04
72114;SHT31;59989;46.220;19.888;2023-06-22T14:22:08;43.42;34.50
72114;SHT31;59989;46.220;19.888;2023-06-22T14:25:11;43.03;35.37
72114;SHT31;59989;46.220;19.888;2023-06-22T14:28:13;45.04;33.56
72114;SHT31;59989;46.220;19.888;2023-06-22T14:31:17;44.00;33.81
72114;SHT31;59989;46.220;19.888;2023-06-22T14:34:19;44.20;32.95
72114;SHT31;59989;46.220;19.888;2023-06-22T14:37:22;44.67;32.93
72114;SHT31;59989;46.220;19.888;2023-06-22T14:40:24;45.42;31.99
72114;SHT31;59989;46.220;19.888;2023-06-22T14:43:28;43.58;34.45
72114;SHT31;59989;46.220;19.888;2023-06-22T14:46:30;44.29;34.74
72114;SHT31;59989;46.220;19.888;2023-06-22T14:49:33;43.69;34.70
72114;SHT31;59989;46.220;19.888;2023-06-22T14:52:36;45.63;32.33
72114;SHT31;59989;46.220;19.888;2023-06-22T14:55:39;46.17;31.77
72114;SHT31;59989;46.220;19.888;2023-06-22T14:58:41;44.82;32.90
72114;SHT31;59989;46.220;19.888;2023-06-22T15:01:48;44.24;33.20
72114;SHT31;59989;46.220;19.888;2023-06-22T15:04:51;44.64;33.17
72114;SHT31;59989;46.220;19.888;2023-06-22T15:07:55;43.75;34.04
72114;SHT31;59989;46.220;19.888;2023-06-22T15:11:00;43.86;34.90
72114;SHT31;59989;46.220;19.888;2023-06-22T15:14:04;41.94;37.09
72114;SHT31;59989;46.220;19.888;2023-06-22T15:17:07;43.27;35.43
72114;SHT31;59989;46.220;19.888;2023-06-22T15:20:16;44.16;34.33
72114;SHT31;59989;46.220;19.888;2023-06-22T15:23:18;43.79;34.63
72114;SHT31;59989;46.220;19.888;2023-06-22T15:26:21;43.11;35.13
72114;SHT31;59989;46.220;19.888;2023-06-22T15:29:23;43.45;34.90
72114;SHT31;59989;46.220;19.888;2023-06-22T15:32:26;43.71;34.75
72114;SHT31;59989;46.220;19.888;2023-06-22T15:35:28;42.35;36.75
72114;SHT31;59989;46.220;19.888;2023-06-22T15:38:31;41.53;37.47
72114;SHT31;59989;46.220;19.888;2023-06-22T15:41:34;41.50;37.24
72114;SHT31;59989;46.220;19.888;2023-06-22T15:44:36;42.77;35.62
72114;SHT31;59989;46.220;19.888;2023-06-22T15:47:39;43.06;35.05
72114;SHT31;59989;46.220;19.888;2023-06-22T15:50:41;42.79;35.63
72114;SHT31;59989;46.220;19.888;2023-06-22T15:53:44;42.49;35.88
72114;SHT31;59989;46.220;19.888;2023-06-22T15:56:46;42.63;35.78
72114;SHT31;59989;46.220;19.888;2023-06-22T15:59:49;42.73;35.67
72114;SHT31;59989;46.220;19.888;2023-06-22T16:02:51;41.16;38.17
72114;SHT31;59989;46.220;19.888;2023-06-22T16:05:54;41.25;38.53
72114;SHT31;59989;46.220;19.888;2023-06-22T16:08:57;41.22;38.08
72114;SHT31;59989;46.220;19.888;2023-06-22T16:11:59;41.02;38.60
72114;SHT31;59989;46.220;19.888;2023-06-22T16:15:03;40.21;39.83
72114;SHT31;59989;46.220;19.888;2023-06-22T16:18:05;38.84;41.76
72114;SHT31;59989;46.220;19.888;2023-06-22T16:21:08;38.64;42.41
72114;SHT31;59989;46.220;19.888;2023-06-22T16:24:11;38.05;42.93
72114;SHT31;59989;46.220;19.888;2023-06-22T16:27:13;38.05;43.73
72114;SHT31;59989;46.220;19.888;2023-06-22T16:30:16;38.26;43.32
72114;SHT31;59989;46.220;19.888;2023-06-22T16:33:18;37.27;44.80
72114;SHT31;59989;46.220;19.888;2023-06-22T16:36:21;37.00;45.69
72114;SHT31;59989;46.220;19.888;2023-06-22T16:39:23;36.27;46.64
72114;SHT31;59989;46.220;19.888;2023-06-22T16:42:26;36.38;46.63
72114;SHT31;59989;46.220;19.888;2023-06-22T16:45:28;36.46;46.70
72114;SHT31;59989;46.220;19.888;2023-06-22T16:48:30;36.23;47.61
72114;SHT31;59989;46.220;19.888;2023-06-22T16:51:33;35.81;47.99
72114;SHT31;59989;46.220;19.888;2023-06-22T16:54:35;35.49;48.61
72114;SHT31;59989;46.220;19.888;2023-06-22T16:57:43;35.25;49.12
72114;SHT31;59989;46.220;19.888;2023-06-22T17:00:45;34.34;50.95
72114;SHT31;59989;46.220;19.888;2023-06-22T17:03:55;34.12;51.81
72114;SHT31;59989;46.220;19.888;2023-06-22T17:07:11;33.58;53.04
72114;SHT31;59989;46.220;19.888;2023-06-22T17:10:16;32.90;54.67
72114;SHT31;59989;46.220;19.888;2023-06-22T17:13:18;32.12;56.41
72114;SHT31;59989;46.220;19.888;2023-06-22T17:16:22;31.70;57.38
72114;SHT31;59989;46.220;19.888;2023-06-22T17:19:26;31.43;58.41
72114;SHT31;59989;46.220;19.888;2023-06-22T17:22:30;31.25;59.26
72114;SHT31;59989;46.220;19.888;2023-06-22T17:25:38;31.13;59.85
72114;SHT31;59989;46.220;19.888;2023-06-22T17:28:50;30.93;60.22
72114;SHT31;59989;46.220;19.888;2023-06-22T17:31:55;30.68;60.77
72114;SHT31;59989;46.220;19.888;2023-06-22T17:34:58;30.52;61.17
72114;SHT31;59989;46.220;19.888;2023-06-22T17:38:00;30.41;61.45
72114;SHT31;59989;46.220;19.888;2023-06-22T17:41:03;30.24;61.87
72114;SHT31;59989;46.220;19.888;2023-06-22T17:44:08;30.14;62.45
72114;SHT31;59989;46.220;19.888;2023-06-22T17:47:11;30.02;62.84
72114;SHT31;59989;46.220;19.888;2023-06-22T17:50:14;29.90;63.09
72114;SHT31;59989;46.220;19.888;2023-06-22T17:53:16;29.72;63.60
72114;SHT31;59989;46.220;19.888;2023-06-22T17:56:19;29.58;64.21
72114;SHT31;59989;46.220;19.888;2023-06-22T17:59:22;29.39;64.59
72114;SHT31;59989;46.220;19.888;2023-06-22T18:02:25;29.19;65.00
72114;SHT31;59989;46.220;19.888;2023-06-22T18:05:36;29.14;65.06
72114;SHT31;59989;46.220;19.888;2023-06-22T18:08:39;28.98;65.25
72114;SHT31;59989;46.220;19.888;2023-06-22T18:11:48;28.86;65.69
72114;SHT31;59989;46.220;19.888;2023-06-22T18:14:51;28.70;66.19
72114;SHT31;59989;46.220;19.888;2023-06-22T18:17:54;28.67;66.22
72114;SHT31;59989;46.220;19.888;2023-06-22T18:20:59;28.59;66.42
72114;SHT31;59989;46.220;19.888;2023-06-22T18:24:02;28.48;66.52
72114;SHT31;59989;46.220;19.888;2023-06-22T18:27:06;28.38;66.62
72114;SHT31;59989;46.220;19.888;2023-06-22T18:30:09;28.28;67.49
72114;SHT31;59989;46.220;19.888;2023-06-22T18:33:12;28.13;67.81
72114;SHT31;59989;46.220;19.888;2023-06-22T18:36:17;28.06;68.05
72114;SHT31;59989;46.220;19.888;2023-06-22T18:39:21;27.95;68.70
72114;SHT31;59989;46.220;19.888;2023-06-22T18:42:24;27.82;69.17
72114;SHT31;59989;46.220;19.888;2023-06-22T18:45:28;27.74;69.34
72114;SHT31;59989;46.220;19.888;2023-06-22T18:48:31;27.67;69.96
72114;SHT31;59989;46.220;19.888;2023-06-22T18:54:54;27.51;70.56
72114;SHT31;59989;46.220;19.888;2023-06-22T18:58:36;27.40;71.22
72114;SHT31;59989;46.220;19.888;2023-06-22T19:01:39;27.30;71.68
72114;SHT31;59989;46.220;19.888;2023-06-22T19:04:43;27.23;72.02
72114;SHT31;59989;46.220;19.888;2023-06-22T19:11:10;27.02;72.82